createdAt,value
2017-05-31T00:01:06.424Z,16.60
2017-05-31T00:03:34.652Z,16.60
2017-05-31T00:06:02.868Z,16.60
2017-05-31T00:08:31.085Z,16.60
2017-05-31T00:10:59.332Z,16.60
2017-05-31T00:13:27.564Z,16.60
2017-05-31T00:15:55.795Z,16.60
2017-05-31T00:18:24.016Z,16.50
2017-05-31T00:20:52.241Z,16.50
2017-05-31T00:23:20.464Z,16.50
2017-05-31T00:25:48.697Z,16.40
2017-05-31T00:28:16.929Z,16.40
2017-05-31T00:30:45.153Z,16.40
2017-05-31T00:33:13.385Z,16.30
2017-05-31T00:35:41.616Z,16.30
2017-05-31T00:38:09.833Z,16.30
2017-05-31T00:40:38.065Z,16.30
2017-05-31T00:43:06.291Z,16.30
2017-05-31T00:45:34.516Z,16.20
2017-05-31T00:48:02.741Z,16.20
2017-05-31T00:50:30.965Z,16.30
2017-05-31T00:52:59.193Z,16.30
2017-05-31T00:55:27.421Z,16.20
2017-05-31T00:57:55.652Z,16.30
2017-05-31T01:00:23.876Z,16.30
2017-05-31T01:02:52.096Z,16.40
2017-05-31T01:05:20.333Z,16.40
2017-05-31T01:07:48.548Z,16.50
2017-05-31T01:10:16.780Z,16.50
2017-05-31T01:12:45.022Z,16.40
2017-05-31T01:15:13.241Z,16.40
2017-05-31T01:17:41.476Z,16.40
2017-05-31T01:20:09.757Z,16.40
2017-05-31T01:22:37.984Z,16.40
2017-05-31T01:25:06.217Z,16.50
2017-05-31T01:27:34.477Z,16.50
2017-05-31T01:30:02.706Z,16.50
2017-05-31T01:32:30.940Z,16.50
2017-05-31T01:34:59.169Z,16.50
2017-05-31T01:37:27.451Z,16.60
2017-05-31T01:39:55.674Z,16.60
2017-05-31T01:42:23.897Z,16.60
2017-05-31T01:44:52.124Z,16.60
2017-05-31T01:47:20.360Z,16.60
2017-05-31T01:49:48.587Z,16.60
2017-05-31T01:52:16.826Z,16.50
2017-05-31T01:54:45.052Z,16.50
2017-05-31T01:57:13.284Z,16.50
2017-05-31T01:59:41.500Z,16.50
2017-05-31T02:02:09.728Z,16.40
2017-05-31T02:04:37.960Z,16.30
2017-05-31T02:07:06.189Z,16.30
2017-05-31T02:09:34.416Z,16.20
2017-05-31T02:12:02.645Z,16.20
2017-05-31T02:14:30.877Z,16.20
2017-05-31T02:16:59.110Z,16.10
2017-05-31T02:19:27.349Z,16.10
2017-05-31T02:21:55.576Z,16.00
2017-05-31T02:24:23.816Z,16.00
2017-05-31T02:26:52.050Z,15.90
2017-05-31T02:29:20.263Z,15.90
2017-05-31T02:31:48.492Z,15.90
2017-05-31T02:34:16.728Z,15.90
2017-05-31T02:36:44.968Z,15.90
2017-05-31T02:39:13.200Z,15.90
2017-05-31T02:41:41.438Z,15.90
2017-05-31T02:44:09.670Z,15.90
2017-05-31T02:46:37.911Z,15.90
2017-05-31T02:49:06.144Z,15.80
2017-05-31T02:51:34.373Z,15.80
2017-05-31T02:54:02.605Z,15.70
2017-05-31T02:56:30.843Z,15.70
2017-05-31T02:58:59.070Z,15.70
2017-05-31T03:01:27.305Z,15.60
2017-05-31T03:03:55.534Z,15.60
2017-05-31T03:06:23.764Z,15.60
2017-05-31T03:08:51.996Z,15.50
2017-05-31T03:11:20.234Z,15.40
2017-05-31T03:13:48.469Z,15.40
2017-05-31T03:16:16.710Z,15.40
2017-05-31T03:18:44.940Z,15.30
2017-05-31T03:21:13.166Z,15.30
2017-05-31T03:23:41.397Z,15.30
2017-05-31T03:26:09.629Z,15.20
2017-05-31T03:28:37.864Z,15.20
2017-05-31T03:31:06.100Z,15.10
2017-05-31T03:33:34.338Z,15.10
2017-05-31T03:36:02.572Z,15.00
2017-05-31T03:38:30.817Z,15.00
2017-05-31T03:40:59.028Z,15.00
2017-05-31T03:43:27.258Z,14.90
2017-05-31T03:45:55.500Z,14.90
2017-05-31T03:48:23.721Z,14.80
2017-05-31T03:50:51.952Z,14.80
2017-05-31T03:53:20.192Z,14.80
2017-05-31T03:55:48.437Z,14.70
2017-05-31T03:58:16.668Z,14.80
2017-05-31T04:00:44.893Z,14.70
2017-05-31T04:03:13.128Z,14.70
2017-05-31T04:05:41.360Z,14.70
2017-05-31T04:08:09.593Z,14.60
2017-05-31T04:10:37.819Z,14.70
2017-05-31T04:13:06.060Z,14.70
2017-05-31T04:15:34.285Z,14.60
2017-05-31T04:18:02.512Z,14.50
2017-05-31T04:20:30.745Z,14.50
2017-05-31T04:22:58.965Z,14.50
2017-05-31T04:25:27.200Z,14.50
2017-05-31T04:27:55.430Z,14.60
2017-05-31T04:30:23.653Z,14.60
2017-05-31T04:32:51.889Z,14.60
2017-05-31T04:35:20.125Z,14.60
2017-05-31T04:37:48.356Z,14.60
2017-05-31T04:40:16.596Z,14.70
2017-05-31T04:42:44.824Z,14.70
2017-05-31T04:45:13.061Z,14.80
2017-05-31T04:47:41.301Z,14.90
2017-05-31T04:50:09.541Z,15.00
2017-05-31T04:52:37.772Z,15.10
2017-05-31T04:55:06.008Z,15.10
2017-05-31T04:57:34.244Z,15.10
2017-05-31T05:00:02.469Z,15.10
2017-05-31T05:02:30.704Z,15.10
2017-05-31T05:04:58.928Z,15.20
2017-05-31T05:07:27.159Z,15.30
2017-05-31T05:09:55.384Z,15.30
2017-05-31T05:12:23.620Z,15.40
2017-05-31T05:14:51.856Z,15.40
2017-05-31T05:17:20.092Z,15.40
2017-05-31T05:19:48.332Z,15.40
2017-05-31T05:22:16.552Z,15.50
2017-05-31T05:24:44.787Z,15.50
2017-05-31T05:27:13.021Z,15.50
2017-05-31T05:29:41.261Z,15.50
2017-05-31T05:32:09.476Z,15.50
2017-05-31T05:34:37.711Z,15.50
2017-05-31T05:37:05.947Z,15.50
2017-05-31T05:39:34.162Z,15.50
2017-05-31T05:42:02.413Z,15.50
2017-05-31T05:44:30.660Z,15.60
2017-05-31T05:46:58.888Z,15.70
2017-05-31T05:49:27.121Z,15.80
2017-05-31T05:51:55.349Z,15.80
2017-05-31T05:54:23.610Z,15.90
2017-05-31T05:56:51.884Z,15.90
2017-05-31T05:59:20.162Z,16.00
2017-05-31T06:01:48.377Z,16.10
2017-05-31T06:04:16.612Z,16.20
2017-05-31T06:06:44.841Z,16.20
2017-05-31T06:09:13.096Z,16.20
2017-05-31T06:11:41.317Z,16.20
2017-05-31T06:14:09.541Z,16.20
2017-05-31T06:16:37.769Z,16.20
2017-05-31T06:19:05.993Z,16.20
2017-05-31T06:21:33.458Z,16.30
2017-05-31T06:24:01.685Z,16.30
2017-05-31T06:26:29.914Z,16.40
2017-05-31T06:28:58.136Z,16.40
2017-05-31T06:31:26.356Z,16.50
2017-05-31T06:33:54.640Z,16.50
2017-05-31T06:36:22.860Z,16.40
2017-05-31T06:38:51.088Z,16.40
2017-05-31T06:41:19.339Z,16.40
2017-05-31T06:43:47.549Z,16.40
2017-05-31T06:46:15.776Z,16.50
2017-05-31T06:48:44.004Z,16.50
2017-05-31T06:51:12.236Z,16.50
2017-05-31T06:53:40.460Z,16.60
2017-05-31T06:56:08.688Z,16.60
2017-05-31T06:58:36.916Z,16.70
2017-05-31T07:01:05.144Z,16.70
2017-05-31T07:03:33.367Z,16.70
2017-05-31T07:06:01.600Z,16.80
2017-05-31T07:08:29.844Z,16.80
2017-05-31T07:10:58.069Z,16.90
2017-05-31T07:13:26.301Z,17.00
2017-05-31T07:15:54.532Z,17.00
2017-05-31T07:18:22.764Z,17.10
2017-05-31T07:20:50.995Z,17.10
2017-05-31T07:23:19.213Z,17.20
2017-05-31T07:25:48.820Z,17.20
2017-05-31T07:28:17.056Z,17.30
2017-05-31T07:30:45.280Z,17.30
2017-05-31T07:33:13.536Z,17.30
2017-05-31T07:35:41.770Z,17.40
2017-05-31T07:38:10.004Z,17.50
2017-05-31T07:40:38.225Z,17.50
2017-05-31T07:43:06.456Z,17.50
2017-05-31T07:45:34.817Z,17.50
2017-05-31T07:48:03.033Z,17.50
2017-05-31T07:50:31.261Z,17.50
2017-05-31T07:52:59.495Z,17.60
2017-05-31T07:55:27.721Z,17.70
2017-05-31T07:57:55.969Z,17.80
2017-05-31T08:00:24.197Z,17.90
2017-05-31T08:02:52.429Z,18.00
2017-05-31T08:05:20.666Z,18.00
2017-05-31T08:07:48.893Z,18.10
2017-05-31T08:10:17.145Z,18.20
2017-05-31T08:12:45.403Z,18.30
2017-05-31T08:15:13.599Z,18.40
2017-05-31T08:17:41.837Z,18.60
2017-05-31T08:20:10.069Z,18.80
2017-05-31T08:22:38.305Z,18.80
2017-05-31T08:25:06.529Z,18.80
2017-05-31T08:27:34.764Z,18.90
2017-05-31T08:30:02.997Z,18.90
2017-05-31T08:32:31.222Z,19.00
2017-05-31T08:34:59.457Z,19.10
2017-05-31T08:37:27.680Z,19.20
2017-05-31T08:39:55.908Z,19.30
2017-05-31T08:42:24.135Z,19.40
2017-05-31T08:44:52.355Z,19.40
2017-05-31T08:47:20.580Z,19.50
2017-05-31T08:49:48.811Z,19.60
2017-05-31T08:52:17.044Z,19.50
2017-05-31T08:54:45.264Z,19.50
2017-05-31T08:57:13.495Z,19.60
2017-05-31T08:59:41.751Z,19.80
2017-05-31T09:02:09.981Z,19.90
2017-05-31T09:04:38.206Z,19.80
2017-05-31T09:07:06.426Z,19.80
2017-05-31T09:09:34.653Z,19.80
2017-05-31T09:12:02.882Z,19.80
2017-05-31T09:14:31.116Z,20.00
2017-05-31T09:16:59.345Z,20.10
2017-05-31T09:19:27.568Z,20.30
2017-05-31T09:21:55.792Z,20.50
2017-05-31T09:24:24.009Z,20.80
2017-05-31T09:26:52.234Z,21.00
2017-05-31T09:29:20.457Z,20.90
2017-05-31T09:31:48.685Z,20.90
2017-05-31T09:34:16.900Z,20.90
2017-05-31T09:36:45.121Z,20.90
2017-05-31T09:39:13.353Z,21.00
2017-05-31T09:41:41.581Z,21.20
2017-05-31T09:44:09.800Z,21.30
2017-05-31T09:46:38.012Z,21.50
2017-05-31T09:49:06.236Z,21.50
2017-05-31T09:51:34.464Z,21.40
2017-05-31T09:54:02.676Z,21.50
2017-05-31T09:56:30.912Z,21.60
2017-05-31T09:58:59.132Z,21.90
2017-05-31T10:01:27.352Z,22.20
2017-05-31T10:03:55.573Z,22.40
2017-05-31T10:06:23.799Z,22.50
2017-05-31T10:08:52.028Z,22.40
2017-05-31T10:11:20.261Z,22.50
2017-05-31T10:13:48.489Z,22.60
2017-05-31T10:16:16.723Z,22.70
2017-05-31T10:18:44.949Z,22.90
2017-05-31T10:21:13.174Z,23.10
2017-05-31T10:23:41.408Z,23.20
2017-05-31T10:26:09.633Z,23.20
2017-05-31T10:28:37.860Z,23.10
2017-05-31T10:31:06.092Z,23.10
2017-05-31T10:33:34.309Z,22.90
2017-05-31T10:36:02.542Z,22.80
2017-05-31T10:38:30.752Z,22.90
2017-05-31T10:40:59.012Z,23.00
2017-05-31T10:43:27.217Z,23.10
2017-05-31T10:45:55.433Z,23.30
2017-05-31T10:48:23.664Z,23.70
2017-05-31T10:50:51.888Z,24.00
2017-05-31T10:53:20.192Z,23.90
2017-05-31T10:55:48.936Z,23.80
2017-05-31T10:58:17.168Z,23.60
2017-05-31T11:00:45.392Z,23.40
2017-05-31T11:03:13.627Z,23.30
2017-05-31T11:05:41.842Z,23.20
2017-05-31T11:08:10.061Z,23.40
2017-05-31T11:10:38.285Z,23.90
2017-05-31T11:13:06.517Z,24.10
2017-05-31T11:15:34.745Z,23.90
2017-05-31T11:18:02.964Z,23.50
2017-05-31T11:20:31.185Z,23.30
2017-05-31T11:22:59.425Z,23.80
2017-05-31T11:25:27.637Z,25.00
2017-05-31T11:27:55.863Z,25.90
2017-05-31T11:30:24.093Z,26.20
2017-05-31T11:32:52.327Z,26.00
2017-05-31T11:35:20.589Z,25.70
2017-05-31T11:37:48.801Z,25.30
2017-05-31T11:40:17.029Z,25.00
2017-05-31T11:42:45.253Z,24.80
2017-05-31T11:45:13.488Z,24.70
2017-05-31T11:47:41.696Z,24.60
2017-05-31T11:50:09.925Z,25.10
2017-05-31T11:52:38.154Z,26.30
2017-05-31T11:55:06.380Z,27.90
2017-05-31T11:57:34.608Z,29.30
2017-05-31T12:00:02.857Z,30.30
2017-05-31T12:02:31.085Z,30.50
2017-05-31T12:04:58.536Z,30.50
2017-05-31T12:07:26.772Z,29.50
2017-05-31T12:09:54.996Z,28.60
2017-05-31T12:12:23.225Z,27.50
2017-05-31T12:14:51.447Z,26.70
2017-05-31T12:17:19.669Z,26.10
2017-05-31T12:19:47.908Z,25.70
2017-05-31T12:22:16.121Z,25.30
2017-05-31T12:24:44.336Z,25.10
2017-05-31T12:27:12.577Z,24.80
2017-05-31T12:29:40.800Z,24.60
2017-05-31T12:32:09.032Z,24.60
2017-05-31T12:34:37.255Z,24.80
2017-05-31T12:37:05.470Z,25.30
2017-05-31T12:39:33.697Z,25.70
2017-05-31T12:42:01.928Z,26.40
2017-05-31T12:44:30.159Z,27.20
2017-05-31T12:46:58.385Z,27.90
2017-05-31T12:49:26.652Z,28.60
2017-05-31T12:51:54.872Z,28.80
2017-05-31T12:54:23.100Z,28.40
2017-05-31T12:56:51.333Z,27.60
2017-05-31T12:59:19.550Z,27.00
2017-05-31T13:01:47.777Z,26.80
2017-05-31T13:04:15.993Z,26.60
2017-05-31T13:06:44.225Z,26.40
2017-05-31T13:09:12.445Z,26.30
2017-05-31T13:11:40.668Z,26.20
2017-05-31T13:14:09.368Z,25.80
2017-05-31T13:16:37.593Z,25.50
2017-05-31T13:19:05.818Z,25.30
2017-05-31T13:21:34.055Z,25.30
2017-05-31T13:24:02.279Z,25.10
2017-05-31T13:26:30.512Z,25.10
2017-05-31T13:28:58.728Z,25.20
2017-05-31T13:31:26.958Z,25.50
2017-05-31T13:33:55.177Z,25.60
2017-05-31T13:36:23.411Z,25.70
2017-05-31T13:38:51.626Z,25.70
2017-05-31T13:41:19.840Z,25.60
2017-05-31T13:43:48.053Z,25.60
2017-05-31T13:46:16.276Z,25.50
2017-05-31T13:48:44.498Z,25.60
2017-05-31T13:51:12.732Z,25.60
2017-05-31T13:53:40.952Z,25.70
2017-05-31T13:56:09.181Z,25.70
2017-05-31T13:58:37.421Z,25.80
2017-05-31T14:01:04.955Z,25.70
2017-05-31T14:03:33.164Z,26.60
2017-05-31T14:06:01.388Z,27.50
2017-05-31T14:08:29.613Z,28.30
2017-05-31T14:10:58.121Z,29.10
2017-05-31T14:13:26.356Z,29.50
2017-05-31T14:15:54.584Z,29.50
2017-05-31T14:18:22.809Z,29.30
2017-05-31T14:20:51.025Z,29.10
2017-05-31T14:23:19.261Z,29.10
2017-05-31T14:25:48.929Z,29.40
2017-05-31T14:28:17.160Z,29.60
2017-05-31T14:30:45.377Z,29.80
2017-05-31T14:33:13.617Z,29.70
2017-05-31T14:35:41.832Z,29.50
2017-05-31T14:38:10.064Z,29.60
2017-05-31T14:40:38.289Z,30.00
2017-05-31T14:43:06.518Z,30.40
2017-05-31T14:45:34.745Z,30.90
2017-05-31T14:48:02.965Z,31.20
2017-05-31T14:50:31.194Z,31.10
2017-05-31T14:52:59.420Z,31.30
2017-05-31T14:55:27.649Z,31.40
2017-05-31T14:57:55.881Z,31.80
2017-05-31T15:00:24.122Z,32.00
2017-05-31T15:02:52.336Z,32.20
2017-05-31T15:05:20.940Z,32.00
2017-05-31T15:07:49.173Z,31.80
2017-05-31T15:10:17.401Z,31.60
2017-05-31T15:12:45.625Z,31.30
2017-05-31T15:15:13.979Z,30.80
2017-05-31T15:17:42.201Z,30.70
2017-05-31T15:20:10.495Z,30.80
2017-05-31T15:22:38.718Z,30.90
2017-05-31T15:25:06.949Z,31.10
2017-05-31T15:27:35.176Z,31.30
2017-05-31T15:30:03.396Z,31.50
2017-05-31T15:32:31.620Z,31.10
2017-05-31T15:34:59.841Z,30.90
2017-05-31T15:37:28.071Z,30.90
2017-05-31T15:39:56.293Z,31.00
2017-05-31T15:42:24.525Z,31.00
2017-05-31T15:44:52.752Z,31.10
2017-05-31T15:47:20.978Z,31.30
2017-05-31T15:49:49.209Z,31.20
2017-05-31T15:52:17.432Z,31.40
2017-05-31T15:54:45.658Z,31.60
2017-05-31T15:57:13.880Z,31.60
2017-05-31T15:59:42.109Z,31.60
2017-05-31T16:02:10.347Z,31.10
2017-05-31T16:04:38.572Z,30.40
2017-05-31T16:07:06.802Z,29.70
2017-05-31T16:09:35.025Z,29.70
2017-05-31T16:12:03.248Z,29.70
2017-05-31T16:14:31.477Z,29.30
2017-05-31T16:16:59.705Z,28.70
2017-05-31T16:19:27.928Z,28.10
2017-05-31T16:21:56.160Z,27.50
2017-05-31T16:24:24.386Z,27.10
2017-05-31T16:26:52.600Z,26.70
2017-05-31T16:29:20.819Z,26.40
2017-05-31T16:31:49.037Z,26.10
2017-05-31T16:34:17.267Z,25.80
2017-05-31T16:36:45.476Z,25.50
2017-05-31T16:39:13.795Z,25.30
2017-05-31T16:41:42.031Z,25.20
2017-05-31T16:44:10.352Z,25.10
2017-05-31T16:46:38.635Z,25.10
2017-05-31T16:49:06.979Z,25.10
2017-05-31T16:51:35.208Z,25.10
2017-05-31T16:54:03.465Z,25.40
2017-05-31T16:56:31.692Z,25.80
2017-05-31T16:58:59.916Z,26.20
2017-05-31T17:01:28.132Z,26.50
2017-05-31T17:03:56.505Z,26.70
2017-05-31T17:06:24.720Z,26.70
2017-05-31T17:08:53.016Z,27.00
2017-05-31T17:11:21.301Z,27.10
2017-05-31T17:13:49.533Z,27.10
2017-05-31T17:16:17.860Z,27.20
2017-05-31T17:18:46.156Z,27.20
2017-05-31T17:21:14.414Z,27.10
2017-05-31T17:23:42.642Z,26.90
2017-05-31T17:26:10.872Z,26.90
2017-05-31T17:28:39.118Z,27.20
2017-05-31T17:31:07.411Z,27.60
2017-05-31T17:33:35.696Z,28.10
2017-05-31T17:36:03.975Z,28.60
2017-05-31T17:38:32.317Z,28.90
2017-05-31T17:41:00.534Z,29.30
2017-05-31T17:43:28.760Z,29.50
2017-05-31T17:45:57.072Z,29.70
2017-05-31T17:48:25.289Z,29.80
2017-05-31T17:50:53.521Z,29.80
2017-05-31T17:53:21.817Z,29.50
2017-05-31T17:55:50.046Z,29.40
2017-05-31T17:58:18.361Z,29.20
2017-05-31T18:00:46.593Z,29.00
2017-05-31T18:03:14.919Z,28.60
2017-05-31T18:05:43.203Z,28.30
2017-05-31T18:08:11.473Z,28.10
2017-05-31T18:10:39.745Z,27.70
2017-05-31T18:13:07.978Z,27.40
2017-05-31T18:15:36.296Z,27.00
2017-05-31T18:18:04.528Z,26.60
2017-05-31T18:20:32.753Z,26.20
2017-05-31T18:23:00.968Z,25.80
2017-05-31T18:25:29.193Z,25.40
2017-05-31T18:27:57.416Z,25.10
2017-05-31T18:30:25.653Z,24.80
2017-05-31T18:32:53.883Z,24.50
2017-05-31T18:35:22.108Z,24.30
2017-05-31T18:37:50.406Z,24.00
2017-05-31T18:40:18.661Z,23.70
2017-05-31T18:42:46.944Z,23.40
2017-05-31T18:45:15.185Z,23.20
2017-05-31T18:47:43.398Z,23.10
2017-05-31T18:50:11.604Z,23.00
2017-05-31T18:52:39.844Z,22.90
2017-05-31T18:55:08.068Z,22.80
2017-05-31T18:57:36.366Z,22.70
2017-05-31T19:00:04.571Z,22.50
2017-05-31T19:02:32.844Z,22.40
2017-05-31T19:05:01.082Z,22.30
2017-05-31T19:07:29.292Z,22.20
2017-05-31T19:09:57.580Z,22.10
2017-05-31T19:12:25.806Z,22.00
2017-05-31T19:14:54.028Z,21.80
2017-05-31T19:17:22.261Z,21.60
2017-05-31T19:19:50.489Z,21.40
2017-05-31T19:22:18.705Z,21.30
2017-05-31T19:24:46.928Z,21.10
2017-05-31T19:27:15.155Z,20.90
2017-05-31T19:29:43.373Z,20.70
2017-05-31T19:32:11.601Z,20.50
2017-05-31T19:34:39.825Z,20.40
2017-05-31T19:37:08.057Z,20.30
2017-05-31T19:39:36.276Z,20.20
2017-05-31T19:42:04.504Z,20.10
2017-05-31T19:44:32.733Z,20.10
2017-05-31T19:47:00.953Z,20.00
2017-05-31T19:49:29.172Z,19.90
2017-05-31T19:51:57.397Z,19.90
2017-05-31T19:54:25.616Z,19.80
2017-05-31T19:56:53.849Z,19.70
2017-05-31T19:59:22.066Z,19.60
2017-05-31T20:01:50.292Z,19.50
2017-05-31T20:04:18.504Z,19.40
2017-05-31T20:06:46.752Z,19.30
2017-05-31T20:09:14.966Z,19.20
2017-05-31T20:11:43.231Z,19.10
2017-05-31T20:14:11.447Z,19.00
2017-05-31T20:16:39.675Z,19.00
2017-05-31T20:19:07.905Z,18.80
2017-05-31T20:21:36.120Z,18.70
2017-05-31T20:24:04.353Z,18.60
2017-05-31T20:26:32.580Z,18.60
2017-05-31T20:29:00.809Z,18.50
2017-05-31T20:31:29.037Z,18.40
2017-05-31T20:33:57.257Z,18.30
2017-05-31T20:36:25.489Z,18.10
2017-05-31T20:38:53.708Z,17.90
2017-05-31T20:41:21.937Z,17.80
2017-05-31T20:43:50.156Z,17.60
2017-05-31T20:46:18.389Z,17.50
2017-05-31T20:48:46.617Z,17.30
2017-05-31T20:51:14.965Z,17.30
2017-05-31T20:53:43.179Z,17.30
2017-05-31T20:56:11.420Z,17.30
2017-05-31T20:58:39.644Z,17.20
2017-05-31T21:01:07.873Z,17.30
2017-05-31T21:03:36.184Z,17.30
2017-05-31T21:06:04.451Z,17.20
2017-05-31T21:08:32.736Z,17.20
2017-05-31T21:11:01.180Z,17.10
2017-05-31T21:13:29.493Z,17.10
2017-05-31T21:15:57.780Z,17.00
2017-05-31T21:18:25.992Z,16.90
2017-05-31T21:20:54.221Z,16.80
2017-05-31T21:23:22.442Z,16.70
2017-05-31T21:25:50.680Z,16.70
2017-05-31T21:28:18.920Z,16.60
2017-05-31T21:30:47.148Z,16.60
2017-05-31T21:33:14.609Z,16.50
2017-05-31T21:35:42.846Z,16.50
2017-05-31T21:38:11.068Z,16.60
2017-05-31T21:40:39.300Z,16.60
2017-05-31T21:43:07.525Z,16.60
2017-05-31T21:45:35.755Z,16.60
2017-05-31T21:48:04.146Z,16.50
2017-05-31T21:50:32.248Z,16.40
2017-05-31T21:53:00.477Z,16.30
2017-05-31T21:55:28.699Z,16.30
2017-05-31T21:57:56.928Z,16.20
2017-05-31T22:00:25.188Z,16.20
2017-05-31T22:02:53.494Z,16.20
2017-05-31T22:05:21.717Z,16.20
2017-05-31T22:07:50.043Z,16.20
2017-05-31T22:10:18.324Z,16.20
2017-05-31T22:12:46.554Z,16.20
2017-05-31T22:15:14.772Z,16.20
2017-05-31T22:17:43.001Z,16.20
2017-05-31T22:20:11.233Z,16.20
2017-05-31T22:22:39.453Z,16.10
2017-05-31T22:25:07.675Z,16.00
2017-05-31T22:27:35.909Z,16.00
2017-05-31T22:30:04.136Z,15.90
2017-05-31T22:32:32.361Z,15.90
2017-05-31T22:35:00.657Z,15.90
2017-05-31T22:37:28.884Z,15.90
2017-05-31T22:39:57.115Z,15.80
2017-05-31T22:42:25.345Z,15.80
2017-05-31T22:44:53.562Z,15.70
2017-05-31T22:47:21.793Z,15.50
2017-05-31T22:49:50.425Z,15.40
2017-05-31T22:52:18.652Z,15.20
2017-05-31T22:54:46.882Z,15.10
2017-05-31T22:57:15.112Z,15.00
2017-05-31T22:59:43.329Z,15.00
2017-05-31T23:02:11.548Z,15.00
2017-05-31T23:04:39.764Z,14.90
2017-05-31T23:07:07.992Z,14.90
2017-05-31T23:09:36.213Z,14.80
2017-05-31T23:12:04.444Z,14.80
2017-05-31T23:14:32.678Z,14.90
2017-05-31T23:17:00.913Z,14.80
2017-05-31T23:19:29.154Z,14.90
2017-05-31T23:21:57.381Z,14.90
2017-05-31T23:24:25.617Z,14.90
2017-05-31T23:26:53.848Z,14.90
2017-05-31T23:29:22.085Z,14.90
2017-05-31T23:31:50.311Z,15.00
2017-05-31T23:34:18.544Z,15.00
2017-05-31T23:36:46.780Z,15.00
2017-05-31T23:39:15.009Z,14.90
2017-05-31T23:41:43.237Z,14.90
2017-05-31T23:44:11.463Z,14.80
2017-05-31T23:46:39.700Z,14.70
2017-05-31T23:49:07.937Z,14.50
2017-05-31T23:51:36.168Z,14.40
2017-05-31T23:54:04.400Z,14.40
2017-05-31T23:56:32.627Z,14.40
2017-05-31T23:59:00.864Z,14.40
